sensor_id;sensor_type;location;lat;lon;timestamp;temperature;humidity
4376;DHT22;2202;50.866;12.750;2023-03-17T00:00:17;2.90;57.30
4376;DHT22;2202;50.866;12.750;2023-03-17T00:02:46;3.00;57.60
4376;DHT22;2202;50.866;12.750;2023-03-17T00:05:16;3.10;55.90
4376;DHT22;2202;50.866;12.750;2023-03-17T00:07:44;3.20;55.30
4376;DHT22;2202;50.866;12.750;2023-03-17T00:10:16;3.30;55.70
4376;DHT22;2202;50.866;12.750;2023-03-17T00:12:45;3.30;54.60
4376;DHT22;2202;50.866;12.750;2023-03-17T00:15:13;3.40;54.60
4376;DHT22;2202;50.866;12.750;2023-03-17T00:17:41;3.40;53.40
4376;DHT22;2202;50.866;12.750;2023-03-17T00:20:21;3.50;54.60
4376;DHT22;2202;50.866;12.750;2023-03-17T00:22:49;3.50;54.10
4376;DHT22;2202;50.866;12.750;2023-03-17T00:25:19;3.50;53.20
4376;DHT22;2202;50.866;12.750;2023-03-17T00:27:48;3.50;54.10
4376;DHT22;2202;50.866;12.750;2023-03-17T00:30:16;3.50;53.90
4376;DHT22;2202;50.866;12.750;2023-03-17T00:32:43;3.50;54.60
4376;DHT22;2202;50.866;12.750;2023-03-17T00:35:19;3.40;54.40
4376;DHT22;2202;50.866;12.750;2023-03-17T00:37:47;3.30;54.10
4376;DHT22;2202;50.866;12.750;2023-03-17T00:40:16;3.30;54.30
4376;DHT22;2202;50.866;12.750;2023-03-17T00:42:43;3.40;55.30
4376;DHT22;2202;50.866;12.750;2023-03-17T00:45:12;3.30;54.60
4376;DHT22;2202;50.866;12.750;2023-03-17T00:47:40;3.40;52.80
4376;DHT22;2202;50.866;12.750;2023-03-17T00:50:11;3.50;53.00
4376;DHT22;2202;50.866;12.750;2023-03-17T00:52:39;3.50;52.80
4376;DHT22;2202;50.866;12.750;2023-03-17T00:55:06;3.50;51.40
4376;DHT22;2202;50.866;12.750;2023-03-17T00:57:34;3.50;52.30
4376;DHT22;2202;50.866;12.750;2023-03-17T01:00:02;3.50;52.10
4376;DHT22;2202;50.866;12.750;2023-03-17T01:02:31;3.50;51.60
4376;DHT22;2202;50.866;12.750;2023-03-17T01:04:58;3.50;51.80
4376;DHT22;2202;50.866;12.750;2023-03-17T01:07:26;3.50;51.90
4376;DHT22;2202;50.866;12.750;2023-03-17T01:09:55;3.60;51.60
4376;DHT22;2202;50.866;12.750;2023-03-17T01:12:22;3.60;50.90
4376;DHT22;2202;50.866;12.750;2023-03-17T01:14:49;3.60;50.00
4376;DHT22;2202;50.866;12.750;2023-03-17T01:17:16;3.70;50.70
4376;DHT22;2202;50.866;12.750;2023-03-17T01:19:45;3.70;50.70
4376;DHT22;2202;50.866;12.750;2023-03-17T01:22:13;3.70;49.80
4376;DHT22;2202;50.866;12.750;2023-03-17T01:24:40;3.80;49.30
4376;DHT22;2202;50.866;12.750;2023-03-17T01:27:07;3.80;49.30
4376;DHT22;2202;50.866;12.750;2023-03-17T01:29:34;3.80;48.80
4376;DHT22;2202;50.866;12.750;2023-03-17T01:32:02;3.80;48.60
4376;DHT22;2202;50.866;12.750;2023-03-17T01:34:29;3.80;48.80
4376;DHT22;2202;50.866;12.750;2023-03-17T01:36:58;3.90;48.80
4376;DHT22;2202;50.866;12.750;2023-03-17T01:39:26;3.90;48.80
4376;DHT22;2202;50.866;12.750;2023-03-17T01:41:53;3.90;48.90
4376;DHT22;2202;50.866;12.750;2023-03-17T01:44:22;3.90;49.60
4376;DHT22;2202;50.866;12.750;2023-03-17T01:46:50;3.90;47.90
4376;DHT22;2202;50.866;12.750;2023-03-17T01:49:26;3.90;47.20
4376;DHT22;2202;50.866;12.750;2023-03-17T01:52:02;3.90;48.40
4376;DHT22;2202;50.866;12.750;2023-03-17T01:54:35;4.00;48.20
4376;DHT22;2202;50.866;12.750;2023-03-17T01:57:08;3.90;47.50
4376;DHT22;2202;50.866;12.750;2023-03-17T01:59:39;3.90;46.80
4376;DHT22;2202;50.866;12.750;2023-03-17T02:02:13;3.90;47.70
4376;DHT22;2202;50.866;12.750;2023-03-17T02:04:41;3.90;47.70
4376;DHT22;2202;50.866;12.750;2023-03-17T02:07:09;3.90;45.60
4376;DHT22;2202;50.866;12.750;2023-03-17T02:09:37;4.00;46.10
4376;DHT22;2202;50.866;12.750;2023-03-17T02:12:06;4.00;47.70
4376;DHT22;2202;50.866;12.750;2023-03-17T02:14:33;4.00;47.20
4376;DHT22;2202;50.866;12.750;2023-03-17T02:17:01;3.90;46.40
4376;DHT22;2202;50.866;12.750;2023-03-17T02:19:28;3.90;46.40
4376;DHT22;2202;50.866;12.750;2023-03-17T02:21:57;3.90;45.60
4376;DHT22;2202;50.866;12.750;2023-03-17T02:24:29;3.90;46.30
4376;DHT22;2202;50.866;12.750;2023-03-17T02:27:00;3.90;44.80
4376;DHT22;2202;50.866;12.750;2023-03-17T02:29:32;3.90;45.90
4376;DHT22;2202;50.866;12.750;2023-03-17T02:32:00;3.90;45.90
4376;DHT22;2202;50.866;12.750;2023-03-17T02:34:28;3.90;45.90
4376;DHT22;2202;50.866;12.750;2023-03-17T02:36:57;3.90;45.20
4376;DHT22;2202;50.866;12.750;2023-03-17T02:39:24;3.90;44.70
4376;DHT22;2202;50.866;12.750;2023-03-17T02:41:52;4.00;44.70
4376;DHT22;2202;50.866;12.750;2023-03-17T02:44:19;4.00;45.40
4376;DHT22;2202;50.866;12.750;2023-03-17T02:46:46;3.90;44.30
4376;DHT22;2202;50.866;12.750;2023-03-17T02:49:13;3.90;44.30
4376;DHT22;2202;50.866;12.750;2023-03-17T02:51:40;3.90;43.40
4376;DHT22;2202;50.866;12.750;2023-03-17T02:54:09;3.90;44.10
4376;DHT22;2202;50.866;12.750;2023-03-17T02:56:36;3.90;44.00
4376;DHT22;2202;50.866;12.750;2023-03-17T02:59:03;3.90;45.00
4376;DHT22;2202;50.866;12.750;2023-03-17T03:01:30;3.90;44.10
4376;DHT22;2202;50.866;12.750;2023-03-17T03:03:56;3.90;45.00
4376;DHT22;2202;50.866;12.750;2023-03-17T03:06:23;3.90;42.70
4376;DHT22;2202;50.866;12.750;2023-03-17T03:08:50;3.90;43.10
4376;DHT22;2202;50.866;12.750;2023-03-17T03:11:19;3.90;43.20
4376;DHT22;2202;50.866;12.750;2023-03-17T03:13:46;3.90;42.70
4376;DHT22;2202;50.866;12.750;2023-03-17T03:16:13;3.90;42.20
4376;DHT22;2202;50.866;12.750;2023-03-17T03:18:39;3.90;42.50
4376;DHT22;2202;50.866;12.750;2023-03-17T03:21:07;3.90;42.40
4376;DHT22;2202;50.866;12.750;2023-03-17T03:23:34;3.90;43.60
4376;DHT22;2202;50.866;12.750;2023-03-17T03:26:01;3.90;41.50
4376;DHT22;2202;50.866;12.750;2023-03-17T03:28:29;3.90;41.50
4376;DHT22;2202;50.866;12.750;2023-03-17T03:30:56;4.00;42.70
4376;DHT22;2202;50.866;12.750;2023-03-17T03:33:23;4.00;41.50
4376;DHT22;2202;50.866;12.750;2023-03-17T03:35:50;4.00;42.00
4376;DHT22;2202;50.866;12.750;2023-03-17T03:38:17;4.00;42.90
4376;DHT22;2202;50.866;12.750;2023-03-17T03:40:44;4.00;44.00
4376;DHT22;2202;50.866;12.750;2023-03-17T03:43:11;4.00;45.40
4376;DHT22;2202;50.866;12.750;2023-03-17T03:45:40;3.90;44.30
4376;DHT22;2202;50.866;12.750;2023-03-17T03:48:07;3.80;42.20
4376;DHT22;2202;50.866;12.750;2023-03-17T03:50:34;3.80;42.00
4376;DHT22;2202;50.866;12.750;2023-03-17T03:53:01;3.80;42.70
4376;DHT22;2202;50.866;12.750;2023-03-17T03:55:27;3.80;43.40
4376;DHT22;2202;50.866;12.750;2023-03-17T03:57:55;3.80;42.50
4376;DHT22;2202;50.866;12.750;2023-03-17T04:00:22;3.80;43.40
4376;DHT22;2202;50.866;12.750;2023-03-17T04:02:50;3.80;44.30
4376;DHT22;2202;50.866;12.750;2023-03-17T04:05:18;3.70;44.00
4376;DHT22;2202;50.866;12.750;2023-03-17T04:07:45;3.70;45.90
4376;DHT22;2202;50.866;12.750;2023-03-17T04:10:13;3.60;45.70
4376;DHT22;2202;50.866;12.750;2023-03-17T04:12:40;3.60;45.90
4376;DHT22;2202;50.866;12.750;2023-03-17T04:15:09;3.50;45.70
4376;DHT22;2202;50.866;12.750;2023-03-17T04:17:39;3.60;44.70
4376;DHT22;2202;50.866;12.750;2023-03-17T04:20:10;3.60;44.80
4376;DHT22;2202;50.866;12.750;2023-03-17T04:22:37;3.60;45.00
4376;DHT22;2202;50.866;12.750;2023-03-17T04:25:05;3.60;45.60
4376;DHT22;2202;50.866;12.750;2023-03-17T04:27:32;3.60;45.40
4376;DHT22;2202;50.866;12.750;2023-03-17T04:29:59;3.60;40.40
4376;DHT22;2202;50.866;12.750;2023-03-17T04:32:27;3.70;41.80
4376;DHT22;2202;50.866;12.750;2023-03-17T04:34:54;3.70;40.60
4376;DHT22;2202;50.866;12.750;2023-03-17T04:37:22;3.80;41.50
4376;DHT22;2202;50.866;12.750;2023-03-17T04:39:49;3.80;41.80
4376;DHT22;2202;50.866;12.750;2023-03-17T04:42:15;3.80;41.30
4376;DHT22;2202;50.866;12.750;2023-03-17T04:44:43;3.80;40.90
4376;DHT22;2202;50.866;12.750;2023-03-17T04:47:10;3.90;40.40
4376;DHT22;2202;50.866;12.750;2023-03-17T04:49:37;3.90;38.80
4376;DHT22;2202;50.866;12.750;2023-03-17T04:52:05;4.00;39.00
4376;DHT22;2202;50.866;12.750;2023-03-17T04:54:33;4.00;37.00
4376;DHT22;2202;50.866;12.750;2023-03-17T04:57:00;4.10;37.20
4376;DHT22;2202;50.866;12.750;2023-03-17T04:59:27;4.10;38.10
4376;DHT22;2202;50.866;12.750;2023-03-17T05:01:54;4.20;39.00
4376;DHT22;2202;50.866;12.750;2023-03-17T05:04:21;4.10;37.20
4376;DHT22;2202;50.866;12.750;2023-03-17T05:06:48;4.10;38.50
4376;DHT22;2202;50.866;12.750;2023-03-17T05:09:16;4.10;38.30
4376;DHT22;2202;50.866;12.750;2023-03-17T05:11:44;4.10;39.00
4376;DHT22;2202;50.866;12.750;2023-03-17T05:14:11;4.10;36.10
4376;DHT22;2202;50.866;12.750;2023-03-17T05:16:38;4.10;37.60
4376;DHT22;2202;50.866;12.750;2023-03-17T05:19:05;4.10;38.30
4376;DHT22;2202;50.866;12.750;2023-03-17T05:21:32;4.10;37.70
4376;DHT22;2202;50.866;12.750;2023-03-17T05:23:59;4.10;39.20
4376;DHT22;2202;50.866;12.750;2023-03-17T05:26:26;4.20;38.30
4376;DHT22;2202;50.866;12.750;2023-03-17T05:28:54;4.20;37.00
4376;DHT22;2202;50.866;12.750;2023-03-17T05:31:21;4.10;39.70
4376;DHT22;2202;50.866;12.750;2023-03-17T05:33:48;4.00;40.10
4376;DHT22;2202;50.866;12.750;2023-03-17T05:36:15;4.00;40.60
4376;DHT22;2202;50.866;12.750;2023-03-17T05:38:42;4.00;40.90
4376;DHT22;2202;50.866;12.750;2023-03-17T05:43:50;3.80;44.80
4376;DHT22;2202;50.866;12.750;2023-03-17T05:46:18;3.70;47.30
4376;DHT22;2202;50.866;12.750;2023-03-17T05:48:46;3.60;47.70
4376;DHT22;2202;50.866;12.750;2023-03-17T05:51:13;3.50;48.40
4376;DHT22;2202;50.866;12.750;2023-03-17T05:53:40;3.50;48.20
4376;DHT22;2202;50.866;12.750;2023-03-17T05:56:08;3.40;50.00
4376;DHT22;2202;50.866;12.750;2023-03-17T05:58:35;3.40;50.70
4376;DHT22;2202;50.866;12.750;2023-03-17T06:01:02;3.30;51.90
4376;DHT22;2202;50.866;12.750;2023-03-17T06:03:30;3.30;53.20
4376;DHT22;2202;50.866;12.750;2023-03-17T06:05:57;3.40;53.70
4376;DHT22;2202;50.866;12.750;2023-03-17T06:08:23;3.40;50.20
4376;DHT22;2202;50.866;12.750;2023-03-17T06:10:50;3.50;49.50
4376;DHT22;2202;50.866;12.750;2023-03-17T06:13:17;3.60;46.10
4376;DHT22;2202;50.866;12.750;2023-03-17T06:15:47;3.80;43.60
4376;DHT22;2202;50.866;12.750;2023-03-17T06:18:14;4.00;41.50
4376;DHT22;2202;50.866;12.750;2023-03-17T06:20:42;4.30;39.90
4376;DHT22;2202;50.866;12.750;2023-03-17T06:23:09;4.60;38.80
4376;DHT22;2202;50.866;12.750;2023-03-17T06:25:36;4.80;40.10
4376;DHT22;2202;50.866;12.750;2023-03-17T06:28:03;4.90;38.30
4376;DHT22;2202;50.866;12.750;2023-03-17T06:30:30;5.00;38.80
4376;DHT22;2202;50.866;12.750;2023-03-17T06:32:58;5.10;37.00
4376;DHT22;2202;50.866;12.750;2023-03-17T06:35:25;5.20;36.70
4376;DHT22;2202;50.866;12.750;2023-03-17T06:37:54;5.30;38.50
4376;DHT22;2202;50.866;12.750;2023-03-17T06:40:21;5.50;37.00
4376;DHT22;2202;50.866;12.750;2023-03-17T06:42:48;5.70;35.80
4376;DHT22;2202;50.866;12.750;2023-03-17T06:45:15;5.80;35.60
4376;DHT22;2202;50.866;12.750;2023-03-17T06:47:42;5.90;35.30
4376;DHT22;2202;50.866;12.750;2023-03-17T06:50:10;6.00;35.10
4376;DHT22;2202;50.866;12.750;2023-03-17T06:52:37;6.30;34.20
4376;DHT22;2202;50.866;12.750;2023-03-17T06:55:06;6.90;32.40
4376;DHT22;2202;50.866;12.750;2023-03-17T06:57:33;7.30;31.40
4376;DHT22;2202;50.866;12.750;2023-03-17T07:00:00;7.60;29.90
4376;DHT22;2202;50.866;12.750;2023-03-17T07:02:29;7.90;29.00
4376;DHT22;2202;50.866;12.750;2023-03-17T07:04:56;8.10;28.30
4376;DHT22;2202;50.866;12.750;2023-03-17T07:07:24;8.30;29.60
4376;DHT22;2202;50.866;12.750;2023-03-17T07:09:51;8.50;29.40
4376;DHT22;2202;50.866;12.750;2023-03-17T07:12:19;8.70;29.00
4376;DHT22;2202;50.866;12.750;2023-03-17T07:14:46;8.90;28.20
4376;DHT22;2202;50.866;12.750;2023-03-17T07:17:14;8.90;28.20
4376;DHT22;2202;50.866;12.750;2023-03-17T07:19:41;9.00;29.00
4376;DHT22;2202;50.866;12.750;2023-03-17T07:22:09;9.30;29.30
4376;DHT22;2202;50.866;12.750;2023-03-17T07:24:37;9.50;27.60
4376;DHT22;2202;50.866;12.750;2023-03-17T07:27:04;9.60;28.40
4376;DHT22;2202;50.866;12.750;2023-03-17T07:29:32;9.70;27.70
4376;DHT22;2202;50.866;12.750;2023-03-17T07:31:59;9.70;28.30
4376;DHT22;2202;50.866;12.750;2023-03-17T07:34:26;10.00;27.30
4376;DHT22;2202;50.866;12.750;2023-03-17T07:36:54;10.10;27.00
4376;DHT22;2202;50.866;12.750;2023-03-17T07:39:21;10.20;27.00
4376;DHT22;2202;50.866;12.750;2023-03-17T07:41:47;10.20;26.90
4376;DHT22;2202;50.866;12.750;2023-03-17T07:44:19;10.30;26.60
4376;DHT22;2202;50.866;12.750;2023-03-17T07:46:48;10.40;28.30
4376;DHT22;2202;50.866;12.750;2023-03-17T07:49:16;10.70;28.00
4376;DHT22;2202;50.866;12.750;2023-03-17T07:51:43;10.80;26.70
4376;DHT22;2202;50.866;12.750;2023-03-17T07:54:10;10.70;26.30
4376;DHT22;2202;50.866;12.750;2023-03-17T07:56:38;10.50;26.60
4376;DHT22;2202;50.866;12.750;2023-03-17T07:59:06;10.40;26.90
4376;DHT22;2202;50.866;12.750;2023-03-17T08:01:34;10.40;26.60
4376;DHT22;2202;50.866;12.750;2023-03-17T08:04:02;10.50;26.70
4376;DHT22;2202;50.866;12.750;2023-03-17T08:06:30;10.50;26.20
4376;DHT22;2202;50.866;12.750;2023-03-17T08:08:56;10.50;25.60
4376;DHT22;2202;50.866;12.750;2023-03-17T08:11:23;10.60;26.80
4376;DHT22;2202;50.866;12.750;2023-03-17T08:13:50;10.60;26.10
4376;DHT22;2202;50.866;12.750;2023-03-17T08:16:17;10.70;26.30
4376;DHT22;2202;50.866;12.750;2023-03-17T08:18:44;10.80;26.20
4376;DHT22;2202;50.866;12.750;2023-03-17T08:21:13;10.70;25.50
4376;DHT22;2202;50.866;12.750;2023-03-17T08:23:41;10.80;27.20
4376;DHT22;2202;50.866;12.750;2023-03-17T08:26:08;10.70;26.20
4376;DHT22;2202;50.866;12.750;2023-03-17T08:28:35;10.70;26.90
4376;DHT22;2202;50.866;12.750;2023-03-17T08:31:09;10.80;26.40
4376;DHT22;2202;50.866;12.750;2023-03-17T08:33:37;11.10;26.60
4376;DHT22;2202;50.866;12.750;2023-03-17T08:36:05;11.30;25.50
4376;DHT22;2202;50.866;12.750;2023-03-17T08:38:35;11.40;24.70
4376;DHT22;2202;50.866;12.750;2023-03-17T08:41:03;11.60;26.30
4376;DHT22;2202;50.866;12.750;2023-03-17T08:43:31;11.90;26.00
4376;DHT22;2202;50.866;12.750;2023-03-17T08:46:02;12.10;24.40
4376;DHT22;2202;50.866;12.750;2023-03-17T08:48:29;12.10;23.70
4376;DHT22;2202;50.866;12.750;2023-03-17T08:50:57;12.30;24.50
4376;DHT22;2202;50.866;12.750;2023-03-17T08:53:24;12.50;24.80
4376;DHT22;2202;50.866;12.750;2023-03-17T08:55:53;12.80;24.00
4376;DHT22;2202;50.866;12.750;2023-03-17T08:58:21;13.00;24.30
4376;DHT22;2202;50.866;12.750;2023-03-17T09:00:48;13.20;23.20
4376;DHT22;2202;50.866;12.750;2023-03-17T09:03:15;13.30;22.60
4376;DHT22;2202;50.866;12.750;2023-03-17T09:05:42;13.20;24.10
4376;DHT22;2202;50.866;12.750;2023-03-17T09:08:10;13.40;23.50
4376;DHT22;2202;50.866;12.750;2023-03-17T09:10:37;13.70;25.90
4376;DHT22;2202;50.866;12.750;2023-03-17T09:13:06;13.60;24.00
4376;DHT22;2202;50.866;12.750;2023-03-17T09:15:33;13.70;24.20
4376;DHT22;2202;50.866;12.750;2023-03-17T09:18:01;13.90;24.80
4376;DHT22;2202;50.866;12.750;2023-03-17T09:20:28;14.10;23.30
4376;DHT22;2202;50.866;12.750;2023-03-17T09:22:55;14.10;24.70
4376;DHT22;2202;50.866;12.750;2023-03-17T09:25:23;14.20;24.40
4376;DHT22;2202;50.866;12.750;2023-03-17T09:27:50;14.40;22.60
4376;DHT22;2202;50.866;12.750;2023-03-17T09:30:18;14.30;23.50
4376;DHT22;2202;50.866;12.750;2023-03-17T09:32:45;14.30;24.10
4376;DHT22;2202;50.866;12.750;2023-03-17T09:35:12;14.10;22.60
4376;DHT22;2202;50.866;12.750;2023-03-17T09:37:38;14.00;23.80
4376;DHT22;2202;50.866;12.750;2023-03-17T09:40:06;14.20;23.20
4376;DHT22;2202;50.866;12.750;2023-03-17T09:42:42;14.30;23.20
4376;DHT22;2202;50.866;12.750;2023-03-17T09:45:21;14.40;23.40
4376;DHT22;2202;50.866;12.750;2023-03-17T09:48:06;14.20;23.70
4376;DHT22;2202;50.866;12.750;2023-03-17T09:50:38;14.20;22.70
4376;DHT22;2202;50.866;12.750;2023-03-17T09:53:14;14.20;23.10
4376;DHT22;2202;50.866;12.750;2023-03-17T09:55:43;14.30;23.60
4376;DHT22;2202;50.866;12.750;2023-03-17T09:58:12;14.30;23.50
4376;DHT22;2202;50.866;12.750;2023-03-17T10:00:40;14.40;23.20
4376;DHT22;2202;50.866;12.750;2023-03-17T10:03:09;14.40;23.90
4376;DHT22;2202;50.866;12.750;2023-03-17T10:05:37;14.50;23.10
4376;DHT22;2202;50.866;12.750;2023-03-17T10:08:10;14.60;24.20
4376;DHT22;2202;50.866;12.750;2023-03-17T10:10:43;14.60;22.50
4376;DHT22;2202;50.866;12.750;2023-03-17T10:13:20;14.70;24.70
4376;DHT22;2202;50.866;12.750;2023-03-17T10:15:52;14.80;21.30
4376;DHT22;2202;50.866;12.750;2023-03-17T10:18:23;14.70;22.90
4376;DHT22;2202;50.866;12.750;2023-03-17T10:20:55;14.90;24.10
4376;DHT22;2202;50.866;12.750;2023-03-17T10:23:26;15.00;22.50
4376;DHT22;2202;50.866;12.750;2023-03-17T10:25:55;14.90;22.80
4376;DHT22;2202;50.866;12.750;2023-03-17T10:28:27;15.00;22.40
4376;DHT22;2202;50.866;12.750;2023-03-17T10:31:01;15.20;22.30
4376;DHT22;2202;50.866;12.750;2023-03-17T10:33:32;15.30;23.00
4376;DHT22;2202;50.866;12.750;2023-03-17T10:36:06;15.40;22.50
4376;DHT22;2202;50.866;12.750;2023-03-17T10:38:34;15.40;22.70
4376;DHT22;2202;50.866;12.750;2023-03-17T10:41:05;15.30;21.90
4376;DHT22;2202;50.866;12.750;2023-03-17T10:43:38;15.20;22.80
4376;DHT22;2202;50.866;12.750;2023-03-17T10:46:17;15.10;23.00
4376;DHT22;2202;50.866;12.750;2023-03-17T10:48:49;15.10;23.20
4376;DHT22;2202;50.866;12.750;2023-03-17T10:51:21;15.40;23.20
4376;DHT22;2202;50.866;12.750;2023-03-17T10:53:52;15.60;24.30
4376;DHT22;2202;50.866;12.750;2023-03-17T10:56:23;15.70;22.80
4376;DHT22;2202;50.866;12.750;2023-03-17T10:58:52;15.70;22.40
4376;DHT22;2202;50.866;12.750;2023-03-17T11:01:27;15.80;23.40
4376;DHT22;2202;50.866;12.750;2023-03-17T11:03:55;15.60;23.80
4376;DHT22;2202;50.866;12.750;2023-03-17T11:06:31;15.70;23.90
4376;DHT22;2202;50.866;12.750;2023-03-17T11:09:05;15.80;24.00
4376;DHT22;2202;50.866;12.750;2023-03-17T11:11:42;15.80;24.70
4376;DHT22;2202;50.866;12.750;2023-03-17T11:14:11;16.00;24.10
4376;DHT22;2202;50.866;12.750;2023-03-17T11:16:47;15.90;23.80
4376;DHT22;2202;50.866;12.750;2023-03-17T11:19:18;16.00;25.10
4376;DHT22;2202;50.866;12.750;2023-03-17T11:21:52;16.10;25.20
4376;DHT22;2202;50.866;12.750;2023-03-17T11:24:25;16.30;23.90
4376;DHT22;2202;50.866;12.750;2023-03-17T11:26:58;16.40;25.90
4376;DHT22;2202;50.866;12.750;2023-03-17T11:29:32;16.60;25.50
4376;DHT22;2202;50.866;12.750;2023-03-17T11:32:18;16.90;24.30
4376;DHT22;2202;50.866;12.750;2023-03-17T11:34:55;16.90;23.20
4376;DHT22;2202;50.866;12.750;2023-03-17T11:37:32;17.00;23.30
4376;DHT22;2202;50.866;12.750;2023-03-17T11:40:10;17.20;24.30
4376;DHT22;2202;50.866;12.750;2023-03-17T11:42:48;17.10;22.70
4376;DHT22;2202;50.866;12.750;2023-03-17T11:45:22;17.00;24.50
4376;DHT22;2202;50.866;12.750;2023-03-17T11:48:08;17.00;23.00
4376;DHT22;2202;50.866;12.750;2023-03-17T11:50:42;16.90;22.90
4376;DHT22;2202;50.866;12.750;2023-03-17T11:53:34;16.60;24.80
4376;DHT22;2202;50.866;12.750;2023-03-17T11:56:05;16.50;24.00
4376;DHT22;2202;50.866;12.750;2023-03-17T11:58:36;16.60;24.20
4376;DHT22;2202;50.866;12.750;2023-03-17T12:01:07;16.50;25.40
4376;DHT22;2202;50.866;12.750;2023-03-17T12:03:40;16.50;23.80
4376;DHT22;2202;50.866;12.750;2023-03-17T12:06:14;16.40;24.30
4376;DHT22;2202;50.866;12.750;2023-03-17T12:08:49;16.40;24.20
4376;DHT22;2202;50.866;12.750;2023-03-17T12:11:20;16.40;25.00
4376;DHT22;2202;50.866;12.750;2023-03-17T12:13:51;16.40;24.90
4376;DHT22;2202;50.866;12.750;2023-03-17T12:16:27;16.50;24.70
4376;DHT22;2202;50.866;12.750;2023-03-17T12:19:03;16.40;24.80
4376;DHT22;2202;50.866;12.750;2023-03-17T12:21:36;16.30;25.10
4376;DHT22;2202;50.866;12.750;2023-03-17T12:24:09;16.40;24.90
4376;DHT22;2202;50.866;12.750;2023-03-17T12:26:43;16.40;24.60
4376;DHT22;2202;50.866;12.750;2023-03-17T12:29:17;16.20;24.90
4376;DHT22;2202;50.866;12.750;2023-03-17T12:31:49;16.20;24.70
4376;DHT22;2202;50.866;12.750;2023-03-17T12:34:24;16.20;25.60
4376;DHT22;2202;50.866;12.750;2023-03-17T12:36:52;16.10;24.00
4376;DHT22;2202;50.866;12.750;2023-03-17T12:39:23;16.10;26.30
4376;DHT22;2202;50.866;12.750;2023-03-17T12:42:02;16.40;25.80
4376;DHT22;2202;50.866;12.750;2023-03-17T12:44:52;16.40;24.30
4376;DHT22;2202;50.866;12.750;2023-03-17T12:47:43;16.40;25.20
4376;DHT22;2202;50.866;12.750;2023-03-17T12:50:41;16.40;25.50
4376;DHT22;2202;50.866;12.750;2023-03-17T12:53:23;16.50;25.30
4376;DHT22;2202;50.866;12.750;2023-03-17T12:55:52;16.50;25.20
4376;DHT22;2202;50.866;12.750;2023-03-17T12:58:28;16.60;25.90
4376;DHT22;2202;50.866;12.750;2023-03-17T13:01:04;16.50;24.10
4376;DHT22;2202;50.866;12.750;2023-03-17T13:03:34;16.50;25.50
4376;DHT22;2202;50.866;12.750;2023-03-17T13:06:06;16.50;26.20
4376;DHT22;2202;50.866;12.750;2023-03-17T13:08:39;16.60;25.30
4376;DHT22;2202;50.866;12.750;2023-03-17T13:11:16;16.70;25.30
4376;DHT22;2202;50.866;12.750;2023-03-17T13:13:45;16.80;24.30
4376;DHT22;2202;50.866;12.750;2023-03-17T13:16:30;16.70;25.10
4376;DHT22;2202;50.866;12.750;2023-03-17T13:19:25;16.90;26.30
4376;DHT22;2202;50.866;12.750;2023-03-17T13:22:32;17.20;26.40
4376;DHT22;2202;50.866;12.750;2023-03-17T13:25:25;17.40;24.60
4376;DHT22;2202;50.866;12.750;2023-03-17T13:28:16;17.70;25.50
4376;DHT22;2202;50.866;12.750;2023-03-17T13:30:55;17.60;25.30
4376;DHT22;2202;50.866;12.750;2023-03-17T13:33:28;17.40;24.00
4376;DHT22;2202;50.866;12.750;2023-03-17T13:36:15;17.20;25.70
4376;DHT22;2202;50.866;12.750;2023-03-17T13:39:08;17.20;25.40
4376;DHT22;2202;50.866;12.750;2023-03-17T13:42:03;17.20;25.60
4376;DHT22;2202;50.866;12.750;2023-03-17T13:44:43;17.30;25.00
4376;DHT22;2202;50.866;12.750;2023-03-17T13:47:25;17.30;25.00
4376;DHT22;2202;50.866;12.750;2023-03-17T13:49:53;17.20;25.70
4376;DHT22;2202;50.866;12.750;2023-03-17T13:52:26;17.20;26.10
4376;DHT22;2202;50.866;12.750;2023-03-17T13:55:03;17.00;25.80
4376;DHT22;2202;50.866;12.750;2023-03-17T13:57:54;17.00;27.10
4376;DHT22;2202;50.866;12.750;2023-03-17T14:00:25;17.00;26.80
4376;DHT22;2202;50.866;12.750;2023-03-17T14:02:59;16.90;26.10
4376;DHT22;2202;50.866;12.750;2023-03-17T14:05:29;16.70;26.30
4376;DHT22;2202;50.866;12.750;2023-03-17T14:07:59;16.80;26.30
4376;DHT22;2202;50.866;12.750;2023-03-17T14:10:30;16.80;25.50
4376;DHT22;2202;50.866;12.750;2023-03-17T14:13:02;16.80;26.40
4376;DHT22;2202;50.866;12.750;2023-03-17T14:15:37;16.90;26.90
4376;DHT22;2202;50.866;12.750;2023-03-17T14:18:15;17.00;25.70
4376;DHT22;2202;50.866;12.750;2023-03-17T14:20:51;17.00;26.40
4376;DHT22;2202;50.866;12.750;2023-03-17T14:23:18;17.30;26.10
4376;DHT22;2202;50.866;12.750;2023-03-17T14:25:47;17.30;26.40
4376;DHT22;2202;50.866;12.750;2023-03-17T14:28:16;17.30;26.00
4376;DHT22;2202;50.866;12.750;2023-03-17T14:30:50;17.10;25.80
4376;DHT22;2202;50.866;12.750;2023-03-17T14:33:21;17.20;26.30
4376;DHT22;2202;50.866;12.750;2023-03-17T14:35:50;17.30;26.50
4376;DHT22;2202;50.866;12.750;2023-03-17T14:38:19;17.30;26.40
4376;DHT22;2202;50.866;12.750;2023-03-17T14:40:48;17.20;26.80
4376;DHT22;2202;50.866;12.750;2023-03-17T14:43:15;17.10;27.60
4376;DHT22;2202;50.866;12.750;2023-03-17T14:45:47;17.00;27.50
4376;DHT22;2202;50.866;12.750;2023-03-17T14:48:16;16.90;27.40
4376;DHT22;2202;50.866;12.750;2023-03-17T14:50:49;16.70;27.60
4376;DHT22;2202;50.866;12.750;2023-03-17T14:53:17;16.60;28.00
4376;DHT22;2202;50.866;12.750;2023-03-17T14:55:44;16.40;27.90
4376;DHT22;2202;50.866;12.750;2023-03-17T14:58:21;16.40;28.50
4376;DHT22;2202;50.866;12.750;2023-03-17T15:00:54;16.40;27.70
4376;DHT22;2202;50.866;12.750;2023-03-17T15:03:28;16.10;27.40
4376;DHT22;2202;50.866;12.750;2023-03-17T15:06:05;16.10;28.60
4376;DHT22;2202;50.866;12.750;2023-03-17T15:08:41;16.10;28.40
4376;DHT22;2202;50.866;12.750;2023-03-17T15:11:22;15.90;27.80
4376;DHT22;2202;50.866;12.750;2023-03-17T15:13:53;15.70;28.70
4376;DHT22;2202;50.866;12.750;2023-03-17T15:16:23;15.60;28.30
4376;DHT22;2202;50.866;12.750;2023-03-17T15:19:00;15.50;29.00
4376;DHT22;2202;50.866;12.750;2023-03-17T15:21:31;15.20;29.10
4376;DHT22;2202;50.866;12.750;2023-03-17T15:24:03;15.00;29.30
4376;DHT22;2202;50.866;12.750;2023-03-17T15:26:30;14.90;30.50
4376;DHT22;2202;50.866;12.750;2023-03-17T15:28:59;14.70;30.10
4376;DHT22;2202;50.866;12.750;2023-03-17T15:31:26;14.50;31.00
4376;DHT22;2202;50.866;12.750;2023-03-17T15:33:55;14.30;32.10
4376;DHT22;2202;50.866;12.750;2023-03-17T15:36:23;14.20;30.80
4376;DHT22;2202;50.866;12.750;2023-03-17T15:38:50;14.10;32.10
4376;DHT22;2202;50.866;12.750;2023-03-17T15:41:18;13.80;32.40
4376;DHT22;2202;50.866;12.750;2023-03-17T15:43:45;13.70;33.10
4376;DHT22;2202;50.866;12.750;2023-03-17T15:46:20;13.50;33.70
4376;DHT22;2202;50.866;12.750;2023-03-17T15:48:48;13.30;34.90
4376;DHT22;2202;50.866;12.750;2023-03-17T15:51:16;13.20;36.50
4376;DHT22;2202;50.866;12.750;2023-03-17T15:53:42;13.10;36.70
4376;DHT22;2202;50.866;12.750;2023-03-17T15:56:15;13.00;37.60
4376;DHT22;2202;50.866;12.750;2023-03-17T15:58:43;12.90;37.90
4376;DHT22;2202;50.866;12.750;2023-03-17T16:01:11;12.70;37.70
4376;DHT22;2202;50.866;12.750;2023-03-17T16:03:40;12.60;39.20
4376;DHT22;2202;50.866;12.750;2023-03-17T16:06:14;12.60;39.50
4376;DHT22;2202;50.866;12.750;2023-03-17T16:08:41;12.70;40.80
4376;DHT22;2202;50.866;12.750;2023-03-17T16:11:13;12.60;39.70
4376;DHT22;2202;50.866;12.750;2023-03-17T16:13:41;12.50;39.90